Time;durP1;ratioP1;P1;durP2;ratioP2;P2;SDS_P1;SDS_P2;PMS_P1;PMS_P2;Temp;Humidity;BMP_temperature;BMP_pressure;BME280_temperature;BME280_humidity;BME280_pressure;Samples;Min_cycle;Max_cycle;Signal;HPM_P1;HPM_P2
2022/05/19 00:02:06;;;;;;;30.67;19.90;;;18.10;99.90;;;;;;4979748;28;20049;-73
2022/05/19 00:04:32;;;;;;;27.60;20.35;;;18.10;99.90;;;;;;4967473;28;20477;-73
2022/05/19 00:06:58;;;;;;;27.85;20.52;;;18.10;99.90;;;;;;4963507;28;20065;-73
2022/05/19 00:09:24;;;;;;;24.85;19.63;;;18.10;99.90;;;;;;4965252;28;20572;-73
2022/05/19 00:11:51;;;;;;;23.00;20.20;;;18.10;99.90;;;;;;4964982;28;20061;-73
2022/05/19 00:14:17;;;;;;;27.15;20.58;;;18.00;99.90;;;;;;4966962;28;20101;-73
2022/05/19 00:16:43;;;;;;;31.10;20.83;;;18.00;99.90;;;;;;4963457;28;20489;-73
2022/05/19 00:19:10;;;;;;;26.83;19.08;;;18.00;99.90;;;;;;4963568;28;20134;-73
2022/05/19 00:21:37;;;;;;;32.58;19.63;;;18.00;99.90;;;;;;4965637;28;20101;-73
2022/05/19 00:24:04;;;;;;;27.60;19.75;;;18.00;99.90;;;;;;4966268;28;20078;-73
2022/05/19 00:26:30;;;;;;;29.00;20.67;;;17.90;99.90;;;;;;4963371;28;20039;-73
2022/05/19 00:28:55;;;;;;;26.30;21.00;;;17.90;99.90;;;;;;4965023;28;20559;-73
2022/05/19 00:31:21;;;;;;;45.00;20.55;;;17.80;99.90;;;;;;4964827;28;20088;-73
2022/05/19 00:33:47;;;;;;;27.38;20.90;;;17.80;99.90;;;;;;4949355;28;20086;-73
2022/05/19 00:36:16;;;;;;;28.77;21.00;;;17.80;99.90;;;;;;4967155;28;20031;-73
2022/05/19 00:38:42;;;;;;;30.42;21.35;;;17.80;99.90;;;;;;4946176;28;20093;-73
2022/05/19 00:41:09;;;;;;;27.58;20.90;;;17.70;99.90;;;;;;4949980;28;20081;-73
2022/05/19 00:43:40;;;;;;;26.35;20.80;;;17.70;99.90;;;;;;4979711;28;20043;-73
2022/05/19 00:46:46;;;;;;;25.60;21.38;;;17.60;99.90;;;;;;4948215;28;20043;-74
2022/05/19 00:49:25;;;;;;;28.58;21.23;;;17.60;99.90;;;;;;4925376;29;20134;-73
2022/05/19 00:51:55;;;;;;;30.77;20.55;;;17.50;99.90;;;;;;4975139;28;20118;-73
2022/05/19 00:54:28;;;;;;;31.85;22.75;;;17.50;99.90;;;;;;4966312;28;20035;-73
2022/05/19 00:57:17;;;;;;;27.83;22.27;;;17.40;99.90;;;;;;4963869;28;20039;-73
2022/05/19 00:59:53;;;;;;;28.45;22.92;;;17.40;99.90;;;;;;4984123;28;20038;-73
2022/05/19 01:02:24;;;;;;;28.38;22.60;;;17.40;99.90;;;;;;4979583;28;20046;-73
2022/05/19 01:05:01;;;;;;;29.30;23.48;;;17.30;99.90;;;;;;4962746;28;20050;-73
2022/05/19 01:07:35;;;;;;;28.08;22.55;;;17.40;99.90;;;;;;4984766;28;20047;-73
2022/05/19 01:10:03;;;;;;;29.02;22.98;;;17.30;99.90;;;;;;4966145;28;20043;-73
2022/05/19 01:12:29;;;;;;;26.00;22.20;;;17.20;99.90;;;;;;4969114;28;20039;-73
2022/05/19 01:14:55;;;;;;;30.65;23.52;;;17.20;99.90;;;;;;4967495;28;20397;-73
2022/05/19 01:17:21;;;;;;;30.83;24.23;;;17.20;99.90;;;;;;4968318;28;20039;-73
2022/05/19 01:19:53;;;;;;;35.17;23.77;;;17.20;99.90;;;;;;4952920;28;20505;-73
2022/05/19 01:23:00;;;;;;;29.67;22.75;;;17.10;99.90;;;;;;4980856;28;20038;-73
2022/05/19 01:25:42;;;;;;;31.17;23.30;;;17.10;99.90;;;;;;4932118;28;20137;-73
2022/05/19 01:28:08;;;;;;;29.23;23.08;;;17.10;99.90;;;;;;4966218;28;20647;-73
2022/05/19 01:30:34;;;;;;;29.80;22.42;;;17.00;99.90;;;;;;4968144;28;20138;-73
2022/05/19 01:33:00;;;;;;;34.20;23.33;;;17.00;99.90;;;;;;4953677;28;20117;-73
2022/05/19 01:35:31;;;;;;;28.38;23.60;;;17.00;99.90;;;;;;4966551;28;20054;-73
2022/05/19 01:37:57;;;;;;;30.63;23.98;;;17.00;99.90;;;;;;4983164;28;20129;-73
2022/05/19 01:40:48;;;;;;;31.90;24.67;;;17.00;99.90;;;;;;4965047;28;20096;-73
2022/05/19 01:43:51;;;;;;;25.88;22.77;;;17.00;99.90;;;;;;4967783;28;20038;-74
2022/05/19 01:46:37;;;;;;;29.27;22.67;;;16.90;99.90;;;;;;4985294;28;20051;-74
2022/05/19 01:49:12;;;;;;;29.25;22.60;;;16.90;99.90;;;;;;4951445;28;20046;-73
2022/05/19 01:52:17;;;;;;;34.88;23.65;;;16.90;99.90;;;;;;4966834;28;20034;-73
2022/05/19 01:54:55;;;;;;;30.17;22.98;;;16.90;99.90;;;;;;4948155;28;20129;-74
2022/05/19 01:57:26;;;;;;;25.83;22.98;;;16.80;99.90;;;;;;4965518;28;20090;-73
2022/05/19 02:00:13;;;;;;;29.25;24.48;;;16.80;99.90;;;;;;4966110;28;20134;-73
2022/05/19 02:02:50;;;;;;;31.63;24.70;;;16.70;99.90;;;;;;4981405;28;20038;-73
2022/05/19 02:05:28;;;;;;;30.98;23.70;;;16.80;99.90;;;;;;4966758;28;20130;-73
2022/05/19 02:07:58;;;;;;;28.50;24.65;;;16.70;99.90;;;;;;4966510;28;20096;-73
2022/05/19 02:10:29;;;;;;;31.98;25.23;;;16.70;99.90;;;;;;4965455;28;20035;-73
2022/05/19 02:12:58;;;;;;;32.30;24.77;;;16.60;99.90;;;;;;4965686;28;20038;-73
2022/05/19 02:15:26;;;;;;;36.60;25.70;;;16.60;99.90;;;;;;4950356;28;20079;-73
2022/05/19 02:17:52;;;;;;;30.95;26.10;;;16.70;99.90;;;;;;4963502;28;20086;-73
2022/05/19 02:20:22;;;;;;;36.63;26.15;;;16.60;99.90;;;;;;4964803;28;20047;-73
2022/05/19 02:22:48;;;;;;;36.65;27.67;;;16.60;99.90;;;;;;4966143;28;20053;-73
2022/05/19 02:25:22;;;;;;;36.78;27.77;;;16.60;99.90;;;;;;4966579;28;20051;-73
2022/05/19 02:27:56;;;;;;;37.08;29.50;;;16.60;99.90;;;;;;4980524;28;20123;-73
2022/05/19 02:30:26;;;;;;;41.28;29.05;;;16.60;99.90;;;;;;4965644;28;20161;-74
2022/05/19 02:32:53;;;;;;;39.55;30.42;;;16.60;99.90;;;;;;4961608;28;20038;-73
2022/05/19 02:35:19;;;;;;;36.28;30.50;;;16.60;99.90;;;;;;4954060;28;20038;-73
2022/05/19 02:37:44;;;;;;;38.67;30.38;;;16.60;99.90;;;;;;4935500;28;20046;-72
2022/05/19 02:40:12;;;;;;;38.00;31.48;;;16.60;99.90;;;;;;4981219;28;20116;-73
2022/05/19 02:42:39;;;;;;;38.70;31.92;;;16.60;99.90;;;;;;4963690;28;20485;-72
2022/05/19 02:45:05;;;;;;;40.10;30.50;;;16.50;99.90;;;;;;4983682;28;20050;-73
2022/05/19 02:47:31;;;;;;;40.70;32.13;;;16.60;99.90;;;;;;4962408;28;20071;-73
2022/05/19 02:49:56;;;;;;;44.65;34.10;;;16.50;99.90;;;;;;4965559;28;20425;-73
2022/05/19 02:52:22;;;;;;;39.75;31.90;;;16.50;99.90;;;;;;4962407;28;20177;-73
2022/05/19 02:54:48;;;;;;;42.33;34.05;;;16.50;99.90;;;;;;4967220;28;20108;-73
2022/05/19 02:57:13;;;;;;;55.47;32.85;;;16.50;99.90;;;;;;4980799;28;20078;-73
2022/05/19 02:59:39;;;;;;;53.85;33.17;;;16.50;99.90;;;;;;4961474;28;20697;-73
2022/05/19 03:02:05;;;;;;;60.83;33.40;;;16.50;99.90;;;;;;4964197;28;20038;-73
2022/05/19 03:04:31;;;;;;;51.47;35.08;;;16.50;99.90;;;;;;4963861;28;20042;-73
2022/05/19 03:06:56;;;;;;;54.83;34.85;;;16.50;99.90;;;;;;4961084;28;20041;-73
2022/05/19 03:09:22;;;;;;;48.65;35.35;;;16.50;99.90;;;;;;4965371;28;20062;-73
2022/05/19 03:11:48;;;;;;;52.60;35.45;;;16.50;99.90;;;;;;4948362;28;20057;-73
2022/05/19 03:14:14;;;;;;;72.88;39.17;;;16.50;99.90;;;;;;4981463;28;20097;-73
2022/05/19 03:16:40;;;;;;;56.67;37.72;;;16.50;99.90;;;;;;4964107;28;20047;-72
2022/05/19 03:19:07;;;;;;;60.55;37.72;;;16.60;99.90;;;;;;4950160;28;20031;-73
2022/05/19 03:21:33;;;;;;;58.85;36.13;;;16.50;99.90;;;;;;4962710;28;20046;-73
2022/05/19 03:23:58;;;;;;;52.30;37.13;;;16.50;99.90;;;;;;4980640;28;20042;-73
2022/05/19 03:26:24;;;;;;;57.10;38.83;;;16.50;99.90;;;;;;4947709;28;20054;-72
2022/05/19 03:28:50;;;;;;;50.25;38.28;;;16.50;99.90;;;;;;4965066;28;20046;-73
2022/05/19 03:31:15;;;;;;;51.80;37.97;;;16.50;99.90;;;;;;4963236;28;20047;-73
2022/05/19 03:33:41;;;;;;;59.45;38.08;;;16.50;99.90;;;;;;4950974;28;20585;-73
2022/05/19 03:36:08;;;;;;;61.45;36.97;;;16.50;99.90;;;;;;4964097;28;20125;-73
2022/05/19 03:38:34;;;;;;;63.35;40.70;;;16.50;99.90;;;;;;4965324;28;20049;-73
2022/05/19 03:40:59;;;;;;;61.08;38.53;;;16.50;99.90;;;;;;4948852;28;20039;-73
2022/05/19 03:43:25;;;;;;;55.42;39.53;;;16.50;99.90;;;;;;4951133;28;20073;-73
2022/05/19 03:45:51;;;;;;;47.90;39.20;;;16.50;99.90;;;;;;4965528;28;20051;-73
2022/05/19 03:48:16;;;;;;;48.53;37.17;;;16.50;99.90;;;;;;4963094;28;20035;-73
2022/05/19 03:50:46;;;;;;;48.72;41.05;;;16.50;99.90;;;;;;4958587;28;20094;-73
2022/05/19 03:53:12;;;;;;;53.50;40.30;;;16.50;99.90;;;;;;4963908;28;20046;-73
2022/05/19 03:55:38;;;;;;;53.60;38.85;;;16.40;99.90;;;;;;4964998;28;20042;-72
2022/05/19 03:58:04;;;;;;;48.05;40.13;;;16.40;99.90;;;;;;4963751;28;20046;-73
2022/05/19 04:00:30;;;;;;;47.15;37.95;;;16.40;99.90;;;;;;4963401;28;20053;-73
2022/05/19 04:02:58;;;;;;;56.35;37.20;;;16.40;99.90;;;;;;4966224;28;20397;-73
2022/05/19 04:05:28;;;;;;;53.05;36.72;;;16.40;99.90;;;;;;4962270;28;20055;-73
2022/05/19 04:07:54;;;;;;;43.60;36.95;;;16.40;99.90;;;;;;4949652;28;20051;-73
2022/05/19 04:10:20;;;;;;;55.10;39.53;;;16.40;99.90;;;;;;4964237;28;20042;-74
2022/05/19 04:12:45;;;;;;;50.22;37.97;;;16.40;99.90;;;;;;4966309;28;20042;-73
2022/05/19 04:15:12;;;;;;;54.22;39.28;;;16.40;99.90;;;;;;4967511;28;20090;-73
2022/05/19 04:17:38;;;;;;;54.97;39.03;;;16.40;99.90;;;;;;4965256;28;20480;-73
2022/05/19 04:20:06;;;;;;;89.28;40.53;;;16.50;99.90;;;;;;4961683;28;20038;-73
2022/05/19 04:22:32;;;;;;;52.45;38.30;;;16.50;99.90;;;;;;4980896;28;20047;-73
2022/05/19 04:25:01;;;;;;;68.47;39.95;;;16.50;99.90;;;;;;4979953;28;20050;-73
2022/05/19 04:27:29;;;;;;;49.10;38.75;;;16.50;99.90;;;;;;4980674;28;20460;-73
2022/05/19 04:29:55;;;;;;;50.78;41.25;;;16.60;99.90;;;;;;4977485;28;20039;-73
2022/05/19 04:32:21;;;;;;;49.50;37.53;;;16.60;99.90;;;;;;4963739;28;20043;-74
2022/05/19 04:34:46;;;;;;;61.58;40.78;;;16.70;99.90;;;;;;4968423;28;20047;-73
2022/05/19 04:37:12;;;;;;;59.35;41.10;;;16.70;99.90;;;;;;4964018;28;20125;-73
2022/05/19 04:39:38;;;;;;;52.65;43.47;;;16.80;99.90;;;;;;4970453;28;20109;-72
2022/05/19 04:42:06;;;;;;;56.00;42.50;;;16.80;99.90;;;;;;4968252;28;20034;-74
2022/05/19 04:44:31;;;;;;;51.47;42.00;;;16.90;99.90;;;;;;4971485;28;20043;-74
2022/05/19 04:46:57;;;;;;;54.25;41.90;;;16.80;99.90;;;;;;4968377;28;20039;-74
2022/05/19 04:49:23;;;;;;;55.50;44.10;;;16.90;99.90;;;;;;4954723;28;20080;-74
2022/05/19 04:51:48;;;;;;;52.40;41.67;;;16.90;99.90;;;;;;4971711;28;20051;-74
2022/05/19 04:54:14;;;;;;;47.35;39.60;;;16.90;99.90;;;;;;4970821;28;20038;-73
2022/05/19 04:56:41;;;;;;;53.03;42.53;;;16.90;99.90;;;;;;4972064;28;20485;-71
2022/05/19 04:59:13;;;;;;;53.42;43.80;;;17.00;99.90;;;;;;4969012;28;20062;-71
2022/05/19 05:01:49;;;;;;;53.03;44.05;;;17.10;99.90;;;;;;4971259;28;20038;-70
2022/05/19 05:04:15;;;;;;;52.92;42.53;;;17.10;99.90;;;;;;4963644;28;20046;-71
2022/05/19 05:06:41;;;;;;;52.70;43.17;;;17.20;99.90;;;;;;4966129;28;20055;-71
2022/05/19 05:09:08;;;;;;;55.40;44.28;;;17.30;99.90;;;;;;4986051;28;20054;-71
2022/05/19 05:11:34;;;;;;;48.65;41.83;;;17.30;99.90;;;;;;4970471;28;20414;-71
2022/05/19 05:13:59;;;;;;;49.95;42.28;;;17.40;99.90;;;;;;4970909;28;20039;-71
2022/05/19 05:16:25;;;;;;;53.15;41.83;;;17.40;99.90;;;;;;4970423;28;20511;-71
2022/05/19 05:18:51;;;;;;;48.13;39.90;;;17.50;99.90;;;;;;4970735;28;20050;-71
2022/05/19 05:21:16;;;;;;;54.60;39.97;;;17.50;99.90;;;;;;4969998;28;20441;-71
2022/05/19 05:23:42;;;;;;;51.10;38.88;;;17.60;99.90;;;;;;4969871;28;20093;-73
2022/05/19 05:26:08;;;;;;;45.67;37.67;;;17.70;99.90;;;;;;4971773;28;20051;-73
2022/05/19 05:28:35;;;;;;;40.92;35.22;;;17.80;99.90;;;;;;4967238;28;20050;-73
2022/05/19 05:31:02;;;;;;;44.00;34.20;;;17.90;99.90;;;;;;4967638;28;20576;-73
2022/05/19 05:33:28;;;;;;;36.78;31.25;;;18.10;99.90;;;;;;4966812;28;20082;-73
2022/05/19 05:35:54;;;;;;;37.17;31.45;;;18.20;99.90;;;;;;4965782;28;20428;-73
2022/05/19 05:38:20;;;;;;;33.42;29.05;;;18.40;99.90;;;;;;4967899;28;20042;-74
2022/05/19 05:40:50;;;;;;;33.00;26.02;;;18.60;99.90;;;;;;4969436;28;20097;-73
2022/05/19 05:43:18;;;;;;;30.20;24.23;;;18.70;99.90;;;;;;4964408;28;20077;-74
2022/05/19 05:45:45;;;;;;;29.88;21.25;;;18.90;99.90;;;;;;4969129;28;20410;-73
2022/05/19 05:48:12;;;;;;;27.58;22.00;;;19.10;99.90;;;;;;4973157;28;20043;-74
2022/05/19 05:50:38;;;;;;;29.73;21.08;;;19.30;99.90;;;;;;4957357;28;20093;-73
2022/05/19 05:53:05;;;;;;;26.92;20.38;;;19.40;99.90;;;;;;4971440;28;20043;-73
2022/05/19 05:55:32;;;;;;;27.20;19.38;;;19.60;99.90;;;;;;4971774;28;20039;-74
2022/05/19 05:57:57;;;;;;;23.90;19.27;;;19.70;99.90;;;;;;4973604;28;20497;-74
2022/05/19 06:00:24;;;;;;;21.13;17.05;;;19.80;99.90;;;;;;4956348;28;20485;-74
2022/05/19 06:02:50;;;;;;;16.85;15.05;;;19.80;99.90;;;;;;4973310;28;20082;-73
2022/05/19 06:05:17;;;;;;;17.35;14.23;;;19.80;99.90;;;;;;4974295;28;20070;-73
2022/05/19 06:07:43;;;;;;;21.58;13.90;;;19.90;99.90;;;;;;4984030;28;20042;-73
2022/05/19 06:10:11;;;;;;;16.83;13.23;;;19.90;99.90;;;;;;4954219;28;20045;-73
2022/05/19 06:12:37;;;;;;;17.35;13.02;;;19.90;99.90;;;;;;4974017;28;20042;-73
2022/05/19 06:15:03;;;;;;;15.35;11.00;;;20.00;99.90;;;;;;4971399;28;20074;-73
2022/05/19 06:17:29;;;;;;;13.27;11.05;;;20.10;99.90;;;;;;4978542;28;20039;-74
2022/05/19 06:19:55;;;;;;;15.02;8.80;;;20.20;99.90;;;;;;4972682;28;20043;-73
2022/05/19 06:22:22;;;;;;;8.82;7.22;;;20.30;99.90;;;;;;4973338;28;20049;-73
2022/05/19 06:24:49;;;;;;;10.23;7.40;;;20.30;99.90;;;;;;4972576;28;20609;-73
2022/05/19 06:27:14;;;;;;;9.52;7.45;;;20.40;99.90;;;;;;4970209;28;20121;-73
2022/05/19 06:29:40;;;;;;;8.73;6.70;;;20.50;99.90;;;;;;4973054;28;20130;-73
2022/05/19 06:32:06;;;;;;;8.68;6.10;;;20.60;99.90;;;;;;4973469;28;20050;-73
2022/05/19 06:34:32;;;;;;;12.13;6.72;;;20.70;99.90;;;;;;4973596;28;20030;-73
2022/05/19 06:36:57;;;;;;;8.48;5.80;;;20.90;99.90;;;;;;4957616;28;20097;-74
2022/05/19 06:39:23;;;;;;;8.90;6.07;;;21.10;99.90;;;;;;4973358;28;20039;-73
2022/05/19 06:42:00;;;;;;;8.45;5.70;;;21.20;99.90;;;;;;4973537;28;20051;-74
2022/05/19 06:44:39;;;;;;;13.15;5.75;;;21.40;99.90;;;;;;4971978;28;20681;-74
2022/05/19 06:47:13;;;;;;;8.85;6.30;;;21.40;99.90;;;;;;4989369;28;20448;-73
2022/05/19 06:49:44;;;;;;;9.10;5.72;;;21.40;99.90;;;;;;4973137;28;20039;-74
2022/05/19 06:52:17;;;;;;;9.20;5.53;;;21.30;99.90;;;;;;4973073;28;20058;-73
2022/05/19 06:54:51;;;;;;;7.18;5.20;;;21.30;99.90;;;;;;4972510;28;20039;-74
2022/05/19 06:57:19;;;;;;;7.10;5.22;;;21.30;99.90;;;;;;4970199;28;20049;-74
2022/05/19 06:59:46;;;;;;;7.60;5.63;;;21.20;99.90;;;;;;4972929;28;20493;-74
2022/05/19 07:02:13;;;;;;;8.82;5.93;;;21.10;99.90;;;;;;4973345;28;20066;-74
2022/05/19 07:04:39;;;;;;;9.35;6.07;;;21.00;99.90;;;;;;4973044;28;20047;-74
2022/05/19 07:07:06;;;;;;;9.38;6.40;;;21.00;99.90;;;;;;4972864;28;20485;-74
2022/05/19 07:09:34;;;;;;;9.43;6.35;;;21.00;99.90;;;;;;4972892;28;20125;-74
2022/05/19 07:12:00;;;;;;;11.57;6.50;;;21.00;99.90;;;;;;4973143;28;20559;-74
2022/05/19 07:14:26;;;;;;;9.35;6.35;;;21.10;99.90;;;;;;4973013;28;20039;-73
2022/05/19 07:16:52;;;;;;;8.43;6.70;;;21.10;99.90;;;;;;4972860;28;20469;-74
2022/05/19 07:22:07;;;;;;;9.15;7.45;;;21.20;99.90;;;;;;4973138;28;20047;-74
2022/05/19 07:24:33;;;;;;;8.32;7.10;;;21.30;99.90;;;;;;4975148;28;20050;-74
2022/05/19 07:26:59;;;;;;;20.67;7.72;;;21.20;99.90;;;;;;4972552;28;20134;-74
2022/05/19 07:29:26;;;;;;;15.75;7.63;;;21.20;99.90;;;;;;4972780;28;20555;-74
2022/05/19 07:31:58;;;;;;;9.25;7.20;;;21.20;99.90;;;;;;4956397;28;20802;-74
2022/05/19 07:34:24;;;;;;;11.75;7.70;;;21.20;99.90;;;;;;4956758;28;20071;-74
2022/05/19 07:36:49;;;;;;;11.13;8.45;;;21.10;99.90;;;;;;4972609;28;20482;-74
2022/05/19 07:39:15;;;;;;;11.25;8.38;;;21.10;99.90;;;;;;4972361;28;20129;-74
2022/05/19 07:41:41;;;;;;;13.45;8.90;;;20.90;99.90;;;;;;4972401;28;20058;-74
2022/05/19 07:44:07;;;;;;;12.65;8.63;;;20.90;99.90;;;;;;4972383;28;20441;-74
2022/05/19 07:46:34;;;;;;;14.38;8.98;;;20.80;99.90;;;;;;4972598;28;20469;-74
2022/05/19 07:49:00;;;;;;;11.68;8.32;;;20.80;99.90;;;;;;4972359;28;20441;-74
2022/05/19 07:51:31;;;;;;;13.82;8.60;;;20.80;99.90;;;;;;4972480;28;20035;-74
2022/05/19 07:53:57;;;;;;;12.50;8.95;;;20.70;99.90;;;;;;4972348;28;20105;-74
2022/05/19 07:56:23;;;;;;;11.27;8.35;;;20.80;99.90;;;;;;4972588;28;20042;-74
2022/05/19 07:58:50;;;;;;;11.02;8.55;;;20.80;99.90;;;;;;4973019;28;20089;-74
2022/05/19 08:01:16;;;;;;;12.85;8.27;;;20.70;99.90;;;;;;4965409;28;20064;-74
2022/05/19 08:03:42;;;;;;;14.35;8.50;;;20.70;99.90;;;;;;4972713;28;20517;-74
2022/05/19 08:06:10;;;;;;;12.23;8.40;;;20.60;99.90;;;;;;4950975;28;20066;-74
2022/05/19 08:08:37;;;;;;;17.38;9.35;;;20.50;99.90;;;;;;4971639;28;20178;-74
2022/05/19 08:11:03;;;;;;;25.15;12.20;;;20.50;99.90;;;;;;4971789;28;20062;-74
2022/05/19 08:16:14;;;;;;;21.83;15.25;;;20.30;99.90;;;;;;4973737;28;20449;-74
2022/05/19 08:18:40;;;;;;;21.38;16.52;;;20.10;99.90;;;;;;4971341;28;20058;-74
2022/05/19 08:21:10;;;;;;;21.80;17.08;;;20.10;99.90;;;;;;4970325;28;20038;-74
2022/05/19 08:23:42;;;;;;;23.27;16.75;;;20.10;99.90;;;;;;4971489;28;20046;-74
2022/05/19 08:26:09;;;;;;;20.35;17.23;;;20.10;99.90;;;;;;4971529;28;20042;-74
2022/05/19 08:28:35;;;;;;;21.20;16.73;;;20.10;99.90;;;;;;4971348;28;20382;-74
2022/05/19 08:31:15;;;;;;;23.13;17.95;;;20.10;99.90;;;;;;4971397;28;20038;-74
2022/05/19 08:33:43;;;;;;;22.40;17.08;;;20.20;99.90;;;;;;4974501;28;20070;-74
2022/05/19 08:36:10;;;;;;;25.48;17.65;;;20.30;99.90;;;;;;4971299;28;20046;-74
2022/05/19 08:38:36;;;;;;;20.23;17.17;;;20.40;99.90;;;;;;4954971;28;20097;-74
2022/05/19 08:41:22;;;;;;;23.08;17.02;;;20.40;99.90;;;;;;4963248;28;20039;-74
2022/05/19 08:44:02;;;;;;;22.60;17.27;;;20.60;99.90;;;;;;4971297;28;20050;-74
2022/05/19 08:46:36;;;;;;;21.08;16.77;;;20.70;99.90;;;;;;4967588;28;20141;-74
2022/05/19 08:49:35;;;;;;;19.55;16.95;;;20.80;99.90;;;;;;4970924;28;20137;-74
2022/05/19 08:52:05;;;;;;;20.83;16.25;;;20.90;99.90;;;;;;4956844;28;20046;-74
2022/05/19 08:54:32;;;;;;;18.85;16.85;;;21.00;99.90;;;;;;4971469;28;20068;-74
2022/05/19 08:57:16;;;;;;;20.35;16.20;;;21.20;99.90;;;;;;4985507;28;20400;-74
2022/05/19 09:00:00;;;;;;;21.25;16.30;;;21.20;99.90;;;;;;4970796;28;20077;-74
2022/05/19 09:02:44;;;;;;;20.83;15.70;;;21.40;99.90;;;;;;4968535;28;20039;-74
2022/05/19 09:05:34;;;;;;;19.83;15.07;;;21.50;99.90;;;;;;4970286;28;20043;-74
2022/05/19 09:08:17;;;;;;;17.98;15.02;;;21.60;99.90;;;;;;4955646;28;20054;-74
2022/05/19 09:10:46;;;;;;;17.33;14.20;;;21.70;99.90;;;;;;4969175;28;20504;-74
2022/05/19 09:13:37;;;;;;;16.05;14.35;;;21.90;99.90;;;;;;4955019;28;20039;-74
2022/05/19 09:16:17;;;;;;;17.60;13.88;;;22.10;99.90;;;;;;4971042;28;20035;-74
2022/05/19 09:19:01;;;;;;;16.85;13.25;;;22.30;99.90;;;;;;4972151;28;20125;-74
2022/05/19 09:21:27;;;;;;;16.83;11.48;;;22.40;99.90;;;;;;4958456;28;20058;-74
2022/05/19 09:23:53;;;;;;;13.35;10.00;;;22.60;99.90;;;;;;4974568;28;20043;-73
2022/05/19 09:26:21;;;;;;;13.55;12.10;;;22.70;99.90;;;;;;4974458;28;20046;-73
2022/05/19 09:29:08;;;;;;;15.23;11.32;;;22.80;99.90;;;;;;4974561;28;20042;-73
2022/05/19 09:31:41;;;;;;;16.38;10.60;;;23.00;99.90;;;;;;4974523;28;20047;-73
2022/05/19 09:34:09;;;;;;;12.52;10.05;;;23.20;99.90;;;;;;4974582;28;20085;-73
2022/05/19 09:36:41;;;;;;;15.27;9.50;;;23.30;99.90;;;;;;4974399;28;20039;-73
2022/05/19 09:39:14;;;;;;;14.13;11.38;;;23.30;99.90;;;;;;4958553;28;20058;-74
2022/05/19 09:41:53;;;;;;;14.60;11.43;;;23.40;99.90;;;;;;4972054;28;20042;-74
2022/05/19 09:44:27;;;;;;;12.70;10.65;;;23.70;99.90;;;;;;4942354;28;20066;-74
2022/05/19 09:46:54;;;;;;;12.07;10.18;;;23.90;99.90;;;;;;4958145;28;20089;-74
2022/05/19 09:49:29;;;;;;;13.00;10.52;;;24.20;99.90;;;;;;4973987;28;20049;-74
2022/05/19 09:52:04;;;;;;;12.65;10.75;;;24.40;99.90;;;;;;4958138;28;20054;-74
2022/05/19 09:54:34;;;;;;;15.18;10.45;;;24.60;99.90;;;;;;4974194;28;20039;-74
2022/05/19 09:57:13;;;;;;;13.40;10.68;;;24.70;99.90;;;;;;4972031;28;20035;-74
2022/05/19 09:59:46;;;;;;;14.98;11.43;;;24.80;99.90;;;;;;4972496;28;20115;-74
2022/05/19 10:02:24;;;;;;;13.85;11.18;;;24.70;99.90;;;;;;4974951;28;20035;-74
2022/05/19 10:04:51;;;;;;;14.15;9.20;;;24.80;99.90;;;;;;4957102;28;20739;-74
2022/05/19 10:07:23;;;;;;;12.50;9.48;;;24.90;99.90;;;;;;4973667;28;20082;-74
2022/05/19 10:09:54;;;;;;;12.90;10.20;;;24.90;99.90;;;;;;4973561;28;20047;-74
2022/05/19 10:12:29;;;;;;;14.40;10.23;;;24.90;99.90;;;;;;4973941;28;20504;-74
2022/05/19 10:15:08;;;;;;;10.82;9.55;;;25.00;99.90;;;;;;4976621;28;20042;-74
2022/05/19 10:17:50;;;;;;;13.43;10.20;;;25.10;99.90;;;;;;4985772;28;20042;-74
2022/05/19 10:20:22;;;;;;;13.52;10.82;;;25.20;99.90;;;;;;4971093;28;20042;-74
2022/05/19 10:22:53;;;;;;;13.68;10.30;;;25.40;99.90;;;;;;4971867;28;20047;-74
2022/05/19 10:25:57;;;;;;;14.95;10.40;;;25.60;99.90;;;;;;4971745;28;20051;-74
2022/05/19 10:31:46;;;;;;;12.25;10.02;;;25.80;99.90;;;;;;4964793;28;20039;-74
2022/05/19 10:34:31;;;;;;;13.75;10.98;;;25.90;99.90;;;;;;4971404;28;20097;-74
2022/05/19 10:37:13;;;;;;;11.02;9.68;;;25.90;99.90;;;;;;4969523;28;20093;-74
2022/05/19 10:40:20;;;;;;;14.60;10.07;;;26.00;99.90;;;;;;4967577;28;20047;-74
2022/05/19 10:43:06;;;;;;;13.73;10.40;;;26.10;99.90;;;;;;4917057;29;20127;-74
2022/05/19 10:45:44;;;;;;;17.23;9.90;;;26.30;99.90;;;;;;4968871;28;20050;-74
2022/05/19 10:48:10;;;;;;;12.88;9.32;;;26.60;99.90;;;;;;4973448;28;20053;-74
2022/05/19 10:50:40;;;;;;;10.10;6.65;;;26.90;99.90;;;;;;4972746;28;20039;-74
2022/05/19 10:53:39;;;;;;;6.82;5.93;;;27.30;99.90;;;;;;4973237;28;20035;-74
2022/05/19 10:56:10;;;;;;;6.07;4.78;;;27.60;99.90;;;;;;4971781;28;20043;-74
2022/05/19 10:58:49;;;;;;;6.63;4.03;;;28.00;99.90;;;;;;4973042;28;20133;-74
2022/05/19 11:01:29;;;;;;;5.55;3.65;;;28.30;99.90;;;;;;4972702;28;20125;-74
2022/05/19 11:04:32;;;;;;;5.00;3.60;;;28.50;98.70;;;;;;4970298;28;20074;-74
2022/05/19 11:07:21;;;;;;;7.10;3.33;;;28.70;91.60;;;;;;4988018;28;20074;-74
2022/05/19 11:10:30;;;;;;;6.40;3.40;;;28.70;93.90;;;;;;4972227;28;20043;-74
2022/05/19 11:13:25;;;;;;;6.30;3.20;;;28.90;93.70;;;;;;4986475;28;20042;-74
2022/05/19 11:16:03;;;;;;;3.60;3.22;;;29.00;89.70;;;;;;4972987;28;20046;-74
2022/05/19 11:18:36;;;;;;;5.25;2.80;;;29.10;90.50;;;;;;4956704;28;20053;-74
2022/05/19 11:21:15;;;;;;;5.32;3.17;;;29.40;88.00;;;;;;4970622;28;20035;-74
2022/05/19 11:24:14;;;;;;;4.13;3.20;;;29.40;84.10;;;;;;4973156;28;20088;-74
2022/05/19 11:27:04;;;;;;;3.08;2.78;;;29.60;83.20;;;;;;4986423;28;20043;-74
2022/05/19 11:29:51;;;;;;;5.38;2.92;;;29.80;78.60;;;;;;4971925;28;20046;-74
2022/05/19 11:32:36;;;;;;;3.78;2.42;;;30.00;75.10;;;;;;4956638;28;20035;-74
2022/05/19 11:35:11;;;;;;;4.40;3.22;;;30.00;72.60;;;;;;4987678;28;20035;-74
2022/05/19 11:37:53;;;;;;;6.60;3.30;;;29.80;70.30;;;;;;4956116;28;20520;-74
2022/05/19 11:40:39;;;;;;;6.35;3.08;;;29.80;75.40;;;;;;4970634;28;20046;-74
2022/05/19 11:43:24;;;;;;;4.53;3.10;;;29.70;73.40;;;;;;4971480;28;20041;-74
2022/05/19 11:46:10;;;;;;;5.47;3.00;;;29.80;71.70;;;;;;4972239;28;20045;-74
2022/05/19 11:57:47;;;;;;;3.78;2.63;;;29.20;63.80;;;;;;4966835;28;20039;-74
2022/05/19 12:00:21;;;;;;;5.47;3.10;;;29.10;67.50;;;;;;4971446;28;20141;-74
2022/05/19 12:03:23;;;;;;;4.38;3.05;;;29.00;68.80;;;;;;4971901;28;20050;-75
2022/05/19 12:06:17;;;;;;;4.88;3.10;;;28.80;70.10;;;;;;4965505;28;20050;-75
2022/05/19 12:09:16;;;;;;;4.43;3.05;;;28.60;70.60;;;;;;4971140;28;20079;-75
2022/05/19 12:11:45;;;;;;;4.88;3.97;;;28.50;68.40;;;;;;4984805;28;20066;-75
2022/05/19 12:14:11;;;;;;;4.72;3.40;;;28.20;66.50;;;;;;4974932;28;20065;-74
2022/05/19 12:16:51;;;;;;;3.60;3.30;;;28.10;72.90;;;;;;4955421;28;20034;-74
2022/05/19 12:19:39;;;;;;;5.78;3.95;;;28.00;78.50;;;;;;4971158;28;20129;-75
2022/05/19 12:22:10;;;;;;;5.53;4.10;;;27.90;75.30;;;;;;4970645;28;20042;-74
2022/05/19 12:24:50;;;;;;;4.45;3.65;;;27.70;74.10;;;;;;4971613;28;20046;-75
2022/05/19 12:27:20;;;;;;;5.15;3.72;;;27.70;76.50;;;;;;4971677;28;20049;-75
2022/05/19 12:33:25;;;;;;;5.93;3.53;;;27.20;74.10;;;;;;4965203;28;20135;-74
2022/05/19 12:35:59;;;;;;;4.55;3.30;;;27.00;78.60;;;;;;4968130;28;20070;-73
2022/05/19 12:38:28;;;;;;;4.47;3.00;;;26.90;89.90;;;;;;4966977;28;20042;-73
2022/05/19 12:40:57;;;;;;;6.43;3.45;;;26.70;92.80;;;;;;4970930;28;20039;-73
2022/05/19 12:43:24;;;;;;;4.22;3.33;;;26.50;96.10;;;;;;4971577;28;20042;-74
2022/05/19 12:45:59;;;;;;;5.97;3.58;;;26.30;99.60;;;;;;4971048;28;20058;-74
2022/05/19 12:48:31;;;;;;;5.40;3.50;;;26.20;99.90;;;;;;4963587;28;20075;-74
2022/05/19 12:51:07;;;;;;;7.00;4.03;;;26.00;99.90;;;;;;4969639;28;20035;-73
2022/05/19 12:53:43;;;;;;;6.00;3.80;;;25.90;99.90;;;;;;4973928;28;20046;-73
2022/05/19 12:56:30;;;;;;;6.43;3.80;;;25.70;99.90;;;;;;4975139;28;20535;-73
2022/05/19 12:59:02;;;;;;;4.97;3.90;;;25.50;99.90;;;;;;4974896;28;20429;-73
2022/05/19 13:01:37;;;;;;;8.68;3.67;;;25.30;99.90;;;;;;4974956;28;20481;-73
2022/05/19 13:04:11;;;;;;;6.00;4.28;;;25.20;99.90;;;;;;4974970;28;20062;-73
2022/05/19 13:07:32;;;;;;;7.00;3.85;;;25.00;99.90;;;;;;4977371;28;20047;-73
2022/05/19 13:10:24;;;;;;;7.72;4.38;;;24.70;99.90;;;;;;4922088;28;20382;-73
2022/05/19 13:13:04;;;;;;;16.67;5.47;;;24.40;99.90;;;;;;4973981;28;20787;-73
2022/05/19 13:15:33;;;;;;;15.82;6.20;;;24.10;99.90;;;;;;4974884;28;20043;-73
2022/05/19 13:18:05;;;;;;;11.00;5.60;;;23.80;99.90;;;;;;4975046;28;20461;-73
2022/05/19 13:20:34;;;;;;;12.20;5.80;;;23.50;99.90;;;;;;4967982;28;20417;-73